4M0 weather

Lake Ann Airway Estates Airport
Traverse City, Michigan, United States

Public forecast

Using degrees Fahrenheit for public forecast. Weather courtesy of forecast.io.

Closest aviation weather report (METAR) to Lake Ann Airway Estates Airport

Closest report is Frankfort Dow Memorial Field, 13.0 nm (24.1 km) WSW. Retrieved 2020/04/05 21:35 UTC (0 seconds ago):

KFKS 052135Z AUTO 01007KT 10SM CLR 05/M01 A3019 RMK AO2 T00521008

Closest aviation forecast (TAF) to Lake Ann Airway Estates Airport

Closest forecast is Cherry Capital Airport, 14.4 nm (26.6 km) E. Retrieved 2020/04/05 18:22 UTC (3 hours ago):

TAF KTVC 051720Z 0518/0618 02007KT P6SM SKC FM060100 VRB03KT P6SM SKC FM061100 VRB03KT P6SM BKN200 FM061600 23006KT P6SM BKN140